Pateros, Washington
Current Conditions -  °F | °C
As of 5:53 AM on Monday 20 Oct 2014 (Local Time) from KOMK Reporting Station
Few Clouds Few Clouds  
Wind Chill: 43°   Ceiling: Unl
Heat Index: 43°   Visibility: 10mi
Dew Point: 41°   Wind: 3mph
Humidity: 93%   Direction: 270°W
Pressure: 29.72"   Gusts: NA
Location:  48.05°N, 119.9°W
Report Text: KOMK 201253Z AUTO 27003KT 10SM FEW100 06/05 A2972 RMK AO2 SLP066 T00610050
Loading
Personal Weather Stations






























Interactive Weather Map
Tropical Storm Tracking
New forecast layout! Learn more

10-Day Weather Forecast

Advertisements
Track Severe Weather on mobile